Time;durP1;ratioP1;P1;durP2;ratioP2;P2;SDS_P1;SDS_P2;PMS_P1;PMS_P2;Temp;Humidity;BMP_temperature;BMP_pressure;BME280_temperature;BME280_humidity;BME280_pressure;Samples;Min_cycle;Max_cycle;Signal;HPM_P1;HPM_P2
2022/12/23 00:00:55;;;;;;;;;;;1.70;79.00;;;;;;5046916;28;87112;-39
2022/12/23 00:03:20;;;;;;;;;;;1.70;79.00;;;;;;5044334;28;87212;-39
2022/12/23 00:05:46;;;;;;;;;;;1.70;79.20;;;;;;5044133;28;87114;-39
2022/12/23 00:08:11;;;;;;;;;;;1.80;79.00;;;;;;5043554;28;88209;-39
2022/12/23 00:10:38;;;;;;;;;;;1.70;79.00;;;;;;5044516;28;86369;-39
2022/12/23 00:15:47;;;;;;;;;;;1.70;78.90;;;;;;5043747;28;87305;-39
2022/12/23 00:18:13;;;;;;;;;;;1.70;79.00;;;;;;5043162;28;88066;-39
2022/12/23 00:20:38;;;;;;;;;;;1.70;79.30;;;;;;5046583;28;88389;-39
2022/12/23 00:23:04;;;;;;;;;;;1.70;79.20;;;;;;5043876;28;87135;-39
2022/12/23 00:25:45;;;;;;;;;;;1.80;79.10;;;;;;5043596;28;87327;-39
2022/12/23 00:28:15;;;;;;;;;;;1.70;79.00;;;;;;5043562;27;88516;-39
2022/12/23 00:30:45;;;;;;;;;;;1.70;79.10;;;;;;5043938;28;87274;-39
2022/12/23 00:33:11;;;;;;;;;;;1.60;79.20;;;;;;5043867;28;87012;-39
2022/12/23 00:35:37;;;;;;;;;;;1.70;79.20;;;;;;5043920;28;87674;-39
2022/12/23 00:38:02;;;;;;;;;;;1.70;79.00;;;;;;5043612;28;87518;-39
2022/12/23 00:43:12;;;;;;;;;;;1.70;79.20;;;;;;5045748;27;87997;-39
2022/12/23 00:45:38;;;;;;;;;;;1.60;79.10;;;;;;5043689;28;88173;-39
2022/12/23 00:50:49;;;;;;;;;;;1.70;79.20;;;;;;5043724;28;86957;-39
2022/12/23 00:53:15;;;;;;;;;;;1.60;79.30;;;;;;5043398;28;87006;-39
2022/12/23 00:55:41;;;;;;;;;;;1.60;79.20;;;;;;5043203;28;87976;-39
2022/12/23 00:58:06;;;;;;;;;;;1.60;79.10;;;;;;5043545;28;87013;-39
2022/12/23 01:06:00;;;;;;;;;;;1.60;79.30;;;;;;5046235;28;86975;-39
2022/12/23 01:08:26;;;;;;;;;;;1.60;79.30;;;;;;5042215;28;88504;-39
2022/12/23 01:10:52;;;;;;;;;;;1.60;79.40;;;;;;5043128;28;87048;-39
2022/12/23 01:13:18;;;;;;;;;;;1.60;79.30;;;;;;5043109;28;87316;-39
2022/12/23 01:15:44;;;;;;;;;;;1.60;79.40;;;;;;5042485;28;88063;-39
2022/12/23 01:18:09;;;;;;;;;;;1.60;79.30;;;;;;5042904;28;87174;-39
2022/12/23 01:20:38;;;;;;;;;;;1.60;79.40;;;;;;5043100;28;87518;-39
2022/12/23 01:23:04;;;;;;;;;;;1.60;79.20;;;;;;5042691;28;88005;-39
2022/12/23 01:25:30;;;;;;;;;;;1.60;79.20;;;;;;5043488;28;86422;-39
2022/12/23 01:27:55;;;;;;;;;;;1.60;79.20;;;;;;5045729;28;87369;-39
2022/12/23 01:30:21;;;;;;;;;;;1.60;79.20;;;;;;5042777;28;87103;-39
2022/12/23 01:32:46;;;;;;;;;;;1.60;80.00;;;;;;5042429;28;87938;-39
2022/12/23 01:35:12;;;;;;;;;;;1.50;79.50;;;;;;5042500;28;87431;-39
2022/12/23 01:37:37;;;;;;;;;;;1.50;79.30;;;;;;5042888;28;87115;-39
2022/12/23 01:40:03;;;;;;;;;;;1.50;79.60;;;;;;5042720;28;87945;-39
2022/12/23 01:42:44;;;;;;;;;;;1.50;79.60;;;;;;5042012;28;87127;-39
2022/12/23 01:45:12;;;;;;;;;;;1.50;79.50;;;;;;5042950;28;86919;-39
2022/12/23 01:47:40;;;;;;;;;;;1.50;79.50;;;;;;5042674;28;86935;-39
2022/12/23 01:50:06;;;;;;;;;;;1.50;80.30;;;;;;5045850;28;86429;-39
2022/12/23 01:52:33;;;;;;;;;;;1.50;79.50;;;;;;5042780;28;87064;-39
2022/12/23 01:54:58;;;;;;;;;;;1.50;79.60;;;;;;5042253;28;87976;-39
2022/12/23 01:57:24;;;;;;;;;;;1.50;79.70;;;;;;5041726;28;88604;-39
2022/12/23 02:05:20;;;;;;;;;;;1.40;79.70;;;;;;5042583;28;86912;-40
2022/12/23 02:10:34;;;;;;;;;;;1.40;79.60;;;;;;5042443;28;87314;-39
2022/12/23 02:13:18;;;;;;;;;;;1.40;79.70;;;;;;5048318;28;86962;-39
2022/12/23 02:18:37;;;;;;;;;;;1.40;79.70;;;;;;5045950;28;87146;-39
2022/12/23 02:21:11;;;;;;;;;;;1.40;79.90;;;;;;5045920;28;87511;-39
2022/12/23 02:23:46;;;;;;;;;;;1.40;80.00;;;;;;5044647;28;90289;-39
2022/12/23 02:26:30;;;;;;;;;;;1.40;79.70;;;;;;5045865;28;87168;-39
2022/12/23 02:29:14;;;;;;;;;;;1.50;79.70;;;;;;5045689;28;88327;-39
2022/12/23 02:31:58;;;;;;;;;;;1.40;79.80;;;;;;5045313;28;88015;-39
2022/12/23 02:34:31;;;;;;;;;;;1.40;79.80;;;;;;5048230;28;87475;-39
2022/12/23 02:36:57;;;;;;;;;;;1.40;80.00;;;;;;5045201;28;87881;-39
2022/12/23 02:39:55;;;;;;;;;;;1.30;80.10;;;;;;5045321;28;87222;-39
2022/12/23 02:42:36;;;;;;;;;;;1.30;80.10;;;;;;4989323;28;87624;-39
2022/12/23 02:45:41;;;;;;;;;;;1.30;80.00;;;;;;5044997;28;89031;-39
2022/12/23 02:48:09;;;;;;;;;;;1.30;80.10;;;;;;4943615;28;87755;-39
2022/12/23 02:50:36;;;;;;;;;;;1.30;80.20;;;;;;4943260;28;88971;-39
2022/12/23 02:53:31;;;;;;;;;;;1.30;80.20;;;;;;4992401;28;89429;-39
2022/12/23 02:55:57;;;;;;;;;;;1.30;80.20;;;;;;5022639;28;87018;-39
2022/12/23 02:58:25;;;;;;;;;;;1.30;80.20;;;;;;5047693;28;88603;-39
2022/12/23 03:00:51;;;;;;;;;;;1.30;80.10;;;;;;5045162;28;87186;-39
2022/12/23 03:03:19;;;;;;;;;;;1.30;80.10;;;;;;5045253;28;87705;-39
2022/12/23 03:05:46;;;;;;;;;;;1.30;80.20;;;;;;5044742;28;87972;-39
2022/12/23 03:08:21;;;;;;;;;;;1.30;80.20;;;;;;5045570;28;86388;-39
2022/12/23 03:10:50;;;;;;;;;;;1.30;80.30;;;;;;5045141;28;87173;-39
2022/12/23 03:13:18;;;;;;;;;;;1.30;80.10;;;;;;5044816;28;87263;-39
2022/12/23 03:16:02;;;;;;;;;;;1.30;80.20;;;;;;5044246;28;88014;-39
2022/12/23 03:18:27;;;;;;;;;;;1.30;80.30;;;;;;5044608;28;87562;-39
2022/12/23 03:20:55;;;;;;;;;;;1.30;80.30;;;;;;5047179;28;88096;-39
2022/12/23 03:23:26;;;;;;;;;;;1.20;80.30;;;;;;5044278;27;87026;-39
2022/12/23 03:26:15;;;;;;;;;;;1.30;80.30;;;;;;5044460;28;88067;-39
2022/12/23 03:28:52;;;;;;;;;;;1.20;80.30;;;;;;5045031;28;87036;-39
2022/12/23 03:31:21;;;;;;;;;;;1.20;80.30;;;;;;5044707;27;87012;-39
2022/12/23 03:33:49;;;;;;;;;;;1.20;80.30;;;;;;5044798;28;87548;-39
2022/12/23 03:36:20;;;;;;;;;;;1.30;80.40;;;;;;5044889;28;86996;-39
2022/12/23 03:38:47;;;;;;;;;;;1.20;80.30;;;;;;5044580;28;87282;-39
2022/12/23 03:41:16;;;;;;;;;;;1.30;80.40;;;;;;5043075;28;89141;-39
2022/12/23 03:44:03;;;;;;;;;;;1.20;80.40;;;;;;5047430;28;87147;-39
2022/12/23 03:46:39;;;;;;;;;;;1.20;80.40;;;;;;5044170;28;88137;-39
2022/12/23 03:49:07;;;;;;;;;;;1.20;80.30;;;;;;5044459;28;87079;-39
2022/12/23 03:51:43;;;;;;;;;;;1.20;80.30;;;;;;5044432;28;87456;-39
2022/12/23 03:54:11;;;;;;;;;;;1.20;80.50;;;;;;5044276;28;88143;-39
2022/12/23 03:56:39;;;;;;;;;;;1.20;80.40;;;;;;5044296;28;86719;-39
2022/12/23 03:59:17;;;;;;;;;;;1.20;80.60;;;;;;5044558;28;87688;-39
2022/12/23 04:01:45;;;;;;;;;;;1.20;80.70;;;;;;5044174;28;87253;-39
2022/12/23 04:04:17;;;;;;;;;;;1.20;80.70;;;;;;5044474;28;87666;-39
2022/12/23 04:07:00;;;;;;;;;;;1.20;80.40;;;;;;5046146;28;88039;-39
2022/12/23 04:09:26;;;;;;;;;;;1.20;80.70;;;;;;5044445;28;87689;-39
2022/12/23 04:11:52;;;;;;;;;;;1.20;80.70;;;;;;5044057;27;87295;-39
2022/12/23 04:14:18;;;;;;;;;;;1.10;80.70;;;;;;5043988;28;88008;-39
2022/12/23 04:16:45;;;;;;;;;;;1.20;80.80;;;;;;5044089;28;87159;-39
2022/12/23 04:19:10;;;;;;;;;;;1.20;80.60;;;;;;5043883;28;87551;-39
2022/12/23 04:21:36;;;;;;;;;;;1.10;80.70;;;;;;5043668;28;88078;-39
2022/12/23 04:24:01;;;;;;;;;;;1.20;80.70;;;;;;5044465;28;86320;-39
2022/12/23 04:26:27;;;;;;;;;;;1.20;80.70;;;;;;5044026;28;87012;-39
2022/12/23 04:28:52;;;;;;;;;;;1.10;80.60;;;;;;5046501;28;88200;-39
2022/12/23 04:31:18;;;;;;;;;;;1.20;80.70;;;;;;5043148;28;89289;-39
2022/12/23 04:33:43;;;;;;;;;;;1.20;80.60;;;;;;5042923;28;88053;-39
2022/12/23 04:36:08;;;;;;;;;;;1.20;80.70;;;;;;5043333;28;87116;-39
2022/12/23 04:38:34;;;;;;;;;;;1.20;80.80;;;;;;5043988;28;88351;-39
2022/12/23 04:40:59;;;;;;;;;;;1.10;80.70;;;;;;5043173;28;88074;-39
2022/12/23 04:43:25;;;;;;;;;;;1.10;80.70;;;;;;5043779;28;87055;-39
2022/12/23 04:45:50;;;;;;;;;;;1.10;80.70;;;;;;5043524;28;88837;-39
2022/12/23 04:48:16;;;;;;;;;;;1.20;80.70;;;;;;5046351;27;87977;-39
2022/12/23 04:50:42;;;;;;;;;;;1.10;81.30;;;;;;5043128;28;88086;-39
2022/12/23 04:53:07;;;;;;;;;;;1.10;80.80;;;;;;5043056;28;88259;-39
2022/12/23 04:55:33;;;;;;;;;;;1.10;80.90;;;;;;5042801;28;87957;-39
2022/12/23 04:57:58;;;;;;;;;;;1.10;80.90;;;;;;5043508;28;88689;-39
2022/12/23 05:00:24;;;;;;;;;;;1.10;80.90;;;;;;5043002;27;87996;-39
2022/12/23 05:02:49;;;;;;;;;;;1.10;80.90;;;;;;5043484;28;87051;-39
2022/12/23 05:05:15;;;;;;;;;;;1.10;80.90;;;;;;5043354;28;87382;-39
2022/12/23 05:07:40;;;;;;;;;;;1.10;80.90;;;;;;5042642;28;88894;-39
2022/12/23 05:10:06;;;;;;;;;;;1.10;80.90;;;;;;5046266;28;87935;-39
2022/12/23 05:12:32;;;;;;;;;;;1.10;80.90;;;;;;5043485;28;87288;-39
2022/12/23 05:14:57;;;;;;;;;;;1.10;80.90;;;;;;5043382;28;86924;-39
2022/12/23 05:17:23;;;;;;;;;;;1.10;80.90;;;;;;5043124;28;87036;-39
2022/12/23 05:19:48;;;;;;;;;;;1.10;80.90;;;;;;5041945;28;89035;-39
2022/12/23 05:22:14;;;;;;;;;;;1.10;80.90;;;;;;5042776;28;87523;-39
2022/12/23 05:24:39;;;;;;;;;;;1.10;80.90;;;;;;5042943;28;87524;-39
2022/12/23 05:27:05;;;;;;;;;;;1.10;81.00;;;;;;5042555;28;88103;-39
2022/12/23 05:29:30;;;;;;;;;;;1.10;81.00;;;;;;5042889;28;87396;-39
2022/12/23 05:31:56;;;;;;;;;;;1.10;80.90;;;;;;5045422;28;86989;-39
2022/12/23 05:34:21;;;;;;;;;;;1.10;81.00;;;;;;5043068;28;87207;-39
2022/12/23 05:36:47;;;;;;;;;;;1.10;81.00;;;;;;5042950;28;86459;-39
2022/12/23 05:39:12;;;;;;;;;;;1.10;81.00;;;;;;5042502;28;88059;-39
2022/12/23 05:41:38;;;;;;;;;;;1.10;81.00;;;;;;5042508;28;87421;-39
2022/12/23 05:44:04;;;;;;;;;;;1.10;81.10;;;;;;5042159;28;87980;-39
2022/12/23 05:46:29;;;;;;;;;;;1.10;81.10;;;;;;5042049;28;88801;-39
2022/12/23 05:48:55;;;;;;;;;;;1.10;81.00;;;;;;5042718;28;87184;-39
2022/12/23 05:51:20;;;;;;;;;;;1.10;81.00;;;;;;5024335;28;90383;-39
2022/12/23 05:53:46;;;;;;;;;;;1.10;81.10;;;;;;5045069;28;88312;-39
2022/12/23 05:56:11;;;;;;;;;;;1.10;81.10;;;;;;5042826;28;87582;-39
2022/12/23 05:58:37;;;;;;;;;;;1.10;81.20;;;;;;5042174;28;88037;-39
2022/12/23 06:01:02;;;;;;;;;;;1.10;81.20;;;;;;5043085;28;86290;-39
2022/12/23 06:03:28;;;;;;;;;;;1.10;81.10;;;;;;5042552;28;86960;-39
2022/12/23 06:05:54;;;;;;;;;;;1.10;81.00;;;;;;5042389;28;88048;-39
2022/12/23 06:08:19;;;;;;;;;;;1.10;81.10;;;;;;5041820;28;88166;-39
2022/12/23 06:10:45;;;;;;;;;;;1.10;81.10;;;;;;5042742;28;88268;-39
2022/12/23 06:13:11;;;;;;;;;;;1.10;81.10;;;;;;5042076;28;88063;-39
2022/12/23 06:15:36;;;;;;;;;;;1.10;81.10;;;;;;5045424;28;87285;-39
2022/12/23 06:18:02;;;;;;;;;;;1.10;81.20;;;;;;5041862;28;88115;-39
2022/12/23 06:20:27;;;;;;;;;;;1.10;80.90;;;;;;5042197;28;86988;-39
2022/12/23 06:22:53;;;;;;;;;;;1.10;81.10;;;;;;5042107;28;87544;-39
2022/12/23 06:25:18;;;;;;;;;;;1.10;81.20;;;;;;5042463;28;87404;-40
2022/12/23 06:27:44;;;;;;;;;;;1.00;81.20;;;;;;5042132;27;87109;-39
2022/12/23 06:30:09;;;;;;;;;;;1.00;81.20;;;;;;5042361;28;87139;-39
2022/12/23 06:32:35;;;;;;;;;;;1.10;81.30;;;;;;5041197;28;88767;-39
2022/12/23 06:35:00;;;;;;;;;;;1.10;81.20;;;;;;5042091;28;87248;-39
2022/12/23 06:37:26;;;;;;;;;;;1.10;81.10;;;;;;5044716;28;87430;-39
2022/12/23 06:39:51;;;;;;;;;;;1.10;81.10;;;;;;5042207;28;87153;-39
2022/12/23 06:42:17;;;;;;;;;;;1.10;81.20;;;;;;5042081;28;87364;-39
2022/12/23 06:44:42;;;;;;;;;;;1.10;81.20;;;;;;5041823;28;87215;-39
2022/12/23 06:47:08;;;;;;;;;;;1.10;81.10;;;;;;5042147;28;87165;-39
2022/12/23 06:49:33;;;;;;;;;;;1.10;80.90;;;;;;5042497;28;87610;-39
2022/12/23 06:51:59;;;;;;;;;;;1.10;81.00;;;;;;5041415;28;87138;-39
2022/12/23 06:54:24;;;;;;;;;;;1.10;80.90;;;;;;5023638;28;87076;-39
2022/12/23 06:56:50;;;;;;;;;;;1.20;80.70;;;;;;5044024;28;87915;-39
2022/12/23 06:59:15;;;;;;;;;;;1.10;81.00;;;;;;5045048;28;87253;-39
2022/12/23 07:01:41;;;;;;;;;;;1.10;81.10;;;;;;5045263;28;87193;-39
2022/12/23 07:04:06;;;;;;;;;;;1.10;81.10;;;;;;5044889;28;88086;-39
2022/12/23 07:06:32;;;;;;;;;;;1.10;81.00;;;;;;5045095;28;87124;-39
2022/12/23 07:08:57;;;;;;;;;;;1.10;81.00;;;;;;5045076;28;87324;-39
2022/12/23 07:11:23;;;;;;;;;;;1.10;81.20;;;;;;5044619;28;87994;-39
2022/12/23 07:13:48;;;;;;;;;;;1.10;81.20;;;;;;5045491;28;86398;-39
2022/12/23 07:16:14;;;;;;;;;;;1.10;80.90;;;;;;5045170;28;86964;-39
2022/12/23 07:18:39;;;;;;;;;;;1.20;80.80;;;;;;5047432;28;88183;-39
2022/12/23 07:21:05;;;;;;;;;;;1.20;80.80;;;;;;5044567;28;87890;-39
2022/12/23 07:23:30;;;;;;;;;;;1.20;80.80;;;;;;5044571;28;87982;-39
2022/12/23 07:25:56;;;;;;;;;;;1.20;80.80;;;;;;5045196;28;87151;-39
2022/12/23 07:28:21;;;;;;;;;;;1.20;80.90;;;;;;5044858;28;86883;-39
2022/12/23 07:30:47;;;;;;;;;;;1.10;81.10;;;;;;5044396;28;87793;-39
2022/12/23 07:33:12;;;;;;;;;;;1.10;81.10;;;;;;5044845;28;87151;-39
2022/12/23 07:35:38;;;;;;;;;;;1.10;80.90;;;;;;5044973;28;87418;-39
2022/12/23 07:38:03;;;;;;;;;;;1.10;80.90;;;;;;5044515;28;87716;-39
2022/12/23 07:40:29;;;;;;;;;;;1.10;81.00;;;;;;5047715;28;87164;-39
2022/12/23 07:42:57;;;;;;;;;;;1.10;81.10;;;;;;5043905;28;89231;-39
2022/12/23 07:45:23;;;;;;;;;;;1.10;81.00;;;;;;5043860;28;88061;-39
2022/12/23 07:47:53;;;;;;;;;;;1.10;81.10;;;;;;5044143;28;89010;-39
2022/12/23 07:50:19;;;;;;;;;;;1.10;81.00;;;;;;5043935;28;89386;-40
2022/12/23 07:52:44;;;;;;;;;;;1.10;81.10;;;;;;5044302;28;87251;-39
2022/12/23 07:55:10;;;;;;;;;;;1.20;80.90;;;;;;5044612;28;87807;-39
2022/12/23 07:57:36;;;;;;;;;;;1.20;80.90;;;;;;5044021;28;88135;-39
2022/12/23 08:00:06;;;;;;;;;;;1.10;81.10;;;;;;5044389;28;87212;-39
2022/12/23 08:02:31;;;;;;;;;;;1.10;81.20;;;;;;5047376;28;87271;-39
2022/12/23 08:04:57;;;;;;;;;;;1.10;81.30;;;;;;5044142;28;87016;-39
2022/12/23 08:07:22;;;;;;;;;;;1.10;81.30;;;;;;5044058;28;87398;-39
2022/12/23 08:09:48;;;;;;;;;;;1.10;81.40;;;;;;5043257;27;89503;-39
2022/12/23 08:12:13;;;;;;;;;;;1.10;81.20;;;;;;5044123;28;87209;-39
2022/12/23 08:14:39;;;;;;;;;;;1.10;81.30;;;;;;5044059;28;88553;-39
2022/12/23 08:17:04;;;;;;;;;;;1.10;81.40;;;;;;5043840;28;88172;-39
2022/12/23 08:19:30;;;;;;;;;;;1.10;82.00;;;;;;5044193;28;87147;-39
2022/12/23 08:21:55;;;;;;;;;;;1.10;81.30;;;;;;5043890;28;87389;-39
2022/12/23 08:24:21;;;;;;;;;;;1.10;81.40;;;;;;5046653;28;88080;-39
2022/12/23 08:26:46;;;;;;;;;;;1.10;81.40;;;;;;5044432;28;87582;-39
2022/12/23 08:29:12;;;;;;;;;;;1.10;81.50;;;;;;5025096;28;88844;-39
2022/12/23 08:31:37;;;;;;;;;;;1.10;81.40;;;;;;5043874;28;87179;-39
2022/12/23 08:34:03;;;;;;;;;;;1.10;81.50;;;;;;5043475;28;87934;-39
2022/12/23 08:36:32;;;;;;;;;;;1.10;81.50;;;;;;5043529;28;88202;-39
2022/12/23 08:38:59;;;;;;;;;;;1.10;81.50;;;;;;5043427;28;87104;-39
2022/12/23 08:41:26;;;;;;;;;;;1.10;81.40;;;;;;5043600;28;87374;-39
2022/12/23 08:43:51;;;;;;;;;;;1.10;81.30;;;;;;5043251;28;87706;-39
2022/12/23 08:46:17;;;;;;;;;;;1.10;81.50;;;;;;5046495;28;86972;-39
2022/12/23 08:48:43;;;;;;;;;;;1.10;81.50;;;;;;5043093;28;87983;-39
2022/12/23 08:51:10;;;;;;;;;;;1.10;81.50;;;;;;5044038;28;86246;-39
2022/12/23 08:53:36;;;;;;;;;;;1.10;81.50;;;;;;5043653;28;86908;-39
2022/12/23 08:56:07;;;;;;;;;;;1.10;81.20;;;;;;5042982;28;88160;-39
2022/12/23 08:58:36;;;;;;;;;;;1.20;81.40;;;;;;5042722;28;87993;-39
2022/12/23 09:01:02;;;;;;;;;;;1.10;81.40;;;;;;5043394;28;88308;-40
2022/12/23 09:03:27;;;;;;;;;;;1.10;81.20;;;;;;5042983;28;88439;-39
2022/12/23 09:05:53;;;;;;;;;;;1.10;81.20;;;;;;5045902;28;87140;-39
2022/12/23 09:08:18;;;;;;;;;;;1.10;81.40;;;;;;5042927;28;88251;-39
2022/12/23 09:10:44;;;;;;;;;;;1.20;81.40;;;;;;5043274;28;87078;-39
2022/12/23 09:13:10;;;;;;;;;;;1.20;81.00;;;;;;5042861;28;88709;-39
2022/12/23 09:15:42;;;;;;;;;;;1.20;80.90;;;;;;5043504;28;87295;-39
2022/12/23 09:18:08;;;;;;;;;;;1.20;81.00;;;;;;5042997;28;87063;-39
2022/12/23 09:20:34;;;;;;;;;;;1.20;81.20;;;;;;5042373;28;87307;-39
2022/12/23 09:23:00;;;;;;;;;;;1.20;81.30;;;;;;5042143;28;89038;-39
2022/12/23 09:25:26;;;;;;;;;;;1.20;81.30;;;;;;5043087;28;87138;-40
2022/12/23 09:27:51;;;;;;;;;;;1.10;81.30;;;;;;5045575;28;87328;-39
2022/12/23 09:30:16;;;;;;;;;;;1.20;81.40;;;;;;5042940;28;87011;-39
2022/12/23 09:32:42;;;;;;;;;;;1.10;81.50;;;;;;5042907;28;87479;-39
2022/12/23 09:35:08;;;;;;;;;;;1.10;81.50;;;;;;5042528;28;88112;-39
2022/12/23 09:37:34;;;;;;;;;;;1.20;81.70;;;;;;5042927;28;87146;-39
2022/12/23 09:40:00;;;;;;;;;;;1.20;81.50;;;;;;5043483;28;87320;-39
2022/12/23 09:42:44;;;;;;;;;;;1.20;81.60;;;;;;5042076;28;89415;-39
2022/12/23 09:45:24;;;;;;;;;;;1.20;81.60;;;;;;5042902;28;87225;-39
2022/12/23 09:47:50;;;;;;;;;;;1.20;81.50;;;;;;5041838;28;89069;-39
2022/12/23 09:50:34;;;;;;;;;;;1.20;81.60;;;;;;5045180;28;87148;-40
2022/12/23 09:53:04;;;;;;;;;;;1.20;81.70;;;;;;5042889;28;87473;-40
2022/12/23 09:55:53;;;;;;;;;;;1.20;81.80;;;;;;5042370;28;88147;-39
2022/12/23 09:58:24;;;;;;;;;;;1.20;81.80;;;;;;5042494;28;87102;-39
2022/12/23 10:00:59;;;;;;;;;;;1.20;81.80;;;;;;5042809;28;87498;-40
2022/12/23 10:03:28;;;;;;;;;;;1.20;81.90;;;;;;5042520;28;88578;-39
2022/12/23 10:05:56;;;;;;;;;;;1.20;81.80;;;;;;5042867;28;86391;-39
2022/12/23 10:08:33;;;;;;;;;;;1.20;81.60;;;;;;5042462;28;87055;-40
2022/12/23 10:11:00;;;;;;;;;;;1.20;81.70;;;;;;5041754;28;89529;-39
2022/12/23 10:13:29;;;;;;;;;;;1.30;81.40;;;;;;5044645;28;88025;-39
2022/12/23 10:15:57;;;;;;;;;;;1.30;81.40;;;;;;5042142;28;87277;-39
2022/12/23 10:18:22;;;;;;;;;;;1.30;81.60;;;;;;5042054;28;87134;-39
2022/12/23 10:20:51;;;;;;;;;;;1.30;81.50;;;;;;5042099;28;87188;-39
2022/12/23 10:23:22;;;;;;;;;;;1.20;81.70;;;;;;5041602;28;88225;-39
2022/12/23 10:25:50;;;;;;;;;;;1.20;81.80;;;;;;5042419;28;86869;-39
2022/12/23 10:28:16;;;;;;;;;;;1.30;81.70;;;;;;5041968;28;87873;-40
2022/12/23 10:30:44;;;;;;;;;;;1.20;81.70;;;;;;5042580;28;87365;-40
2022/12/23 10:33:21;;;;;;;;;;;1.30;82.40;;;;;;5043638;27;87066;-40
2022/12/23 10:35:49;;;;;;;;;;;1.30;82.00;;;;;;5048118;28;87496;-40
2022/12/23 10:38:27;;;;;;;;;;;1.20;82.00;;;;;;5045166;28;88293;-40
2022/12/23 10:40:52;;;;;;;;;;;1.30;82.00;;;;;;5045060;28;88374;-40
2022/12/23 10:43:24;;;;;;;;;;;1.30;82.10;;;;;;5045324;28;87205;-39
2022/12/23 10:45:55;;;;;;;;;;;1.30;82.10;;;;;;5045611;28;87117;-40
2022/12/23 10:48:50;;;;;;;;;;;1.30;81.90;;;;;;5045432;28;87481;-40
2022/12/23 10:51:28;;;;;;;;;;;1.30;82.10;;;;;;4954825;28;88015;-39
2022/12/23 10:53:58;;;;;;;;;;;1.30;81.90;;;;;;5045236;28;87041;-39
2022/12/23 10:56:24;;;;;;;;;;;1.30;82.20;;;;;;5048341;28;87396;-39
2022/12/23 10:58:53;;;;;;;;;;;1.30;82.30;;;;;;5045392;28;87050;-40
2022/12/23 11:01:18;;;;;;;;;;;1.30;82.40;;;;;;5045080;28;87489;-40
2022/12/23 11:03:53;;;;;;;;;;;1.30;82.40;;;;;;5043922;28;90319;-40
2022/12/23 11:06:18;;;;;;;;;;;1.30;82.40;;;;;;5045496;28;87727;-40
2022/12/23 11:08:44;;;;;;;;;;;1.30;82.40;;;;;;5044915;28;87282;-40
2022/12/23 11:11:10;;;;;;;;;;;1.30;82.50;;;;;;5044863;28;88166;-40
2022/12/23 11:13:37;;;;;;;;;;;1.30;82.50;;;;;;5044779;28;87024;-40
2022/12/23 11:16:22;;;;;;;;;;;1.40;82.20;;;;;;5045084;28;87368;-40
2022/12/23 11:18:53;;;;;;;;;;;1.30;82.40;;;;;;5047318;28;89418;-40
2022/12/23 11:21:20;;;;;;;;;;;1.30;82.50;;;;;;5045376;28;87286;-40
2022/12/23 11:23:45;;;;;;;;;;;1.30;82.70;;;;;;5044434;28;88076;-40
2022/12/23 11:26:13;;;;;;;;;;;1.30;82.70;;;;;;5044982;28;86898;-40
2022/12/23 11:28:45;;;;;;;;;;;1.30;82.90;;;;;;5044053;28;87922;-40
2022/12/23 11:31:13;;;;;;;;;;;1.30;82.90;;;;;;5044716;28;87330;-40
2022/12/23 11:33:38;;;;;;;;;;;1.30;82.90;;;;;;5044712;28;87057;-40
2022/12/23 11:36:13;;;;;;;;;;;1.30;83.00;;;;;;5044490;28;88779;-40
2022/12/23 11:38:52;;;;;;;;;;;1.30;83.10;;;;;;5044200;28;87599;-40
2022/12/23 11:41:22;;;;;;;;;;;1.30;83.10;;;;;;5047251;28;87384;-40
2022/12/23 11:43:57;;;;;;;;;;;1.30;83.00;;;;;;5043773;27;88024;-40
2022/12/23 11:46:25;;;;;;;;;;;1.30;83.10;;;;;;5045282;28;86375;-40
2022/12/23 11:49:09;;;;;;;;;;;1.40;83.30;;;;;;5044579;28;86969;-40
2022/12/23 11:51:35;;;;;;;;;;;1.40;83.10;;;;;;5044119;28;88103;-40
2022/12/23 11:54:01;;;;;;;;;;;1.40;83.10;;;;;;5043814;28;88066;-40
2022/12/23 11:56:27;;;;;;;;;;;1.40;83.10;;;;;;5044712;28;88360;-40
2022/12/23 11:59:16;;;;;;;;;;;1.40;83.10;;;;;;5044046;28;88240;-40
2022/12/23 12:01:44;;;;;;;;;;;1.40;83.10;;;;;;5030601;27;88995;-40
2022/12/23 12:04:17;;;;;;;;;;;1.40;83.20;;;;;;5046685;28;87369;-40
2022/12/23 12:06:44;;;;;;;;;;;1.40;83.30;;;;;;5044464;28;86988;-40
2022/12/23 12:09:10;;;;;;;;;;;1.40;83.30;;;;;;5044286;28;87403;-40
2022/12/23 12:11:37;;;;;;;;;;;1.40;83.30;;;;;;5044394;28;86318;-40
2022/12/23 12:14:05;;;;;;;;;;;1.40;83.40;;;;;;5044036;28;87137;-40
2022/12/23 12:16:39;;;;;;;;;;;1.50;83.20;;;;;;5044166;27;87443;-40
2022/12/23 12:19:18;;;;;;;;;;;1.50;83.30;;;;;;5043214;28;88609;-40
2022/12/23 12:21:44;;;;;;;;;;;1.50;83.40;;;;;;5044216;28;87146;-40
2022/12/23 12:24:15;;;;;;;;;;;1.50;83.40;;;;;;5044089;28;87725;-40
2022/12/23 12:26:42;;;;;;;;;;;1.50;83.40;;;;;;5046098;28;89328;-40
2022/12/23 12:29:21;;;;;;;;;;;1.50;83.40;;;;;;5043753;28;87330;-39
2022/12/23 12:31:51;;;;;;;;;;;1.50;83.30;;;;;;5043450;28;87936;-40
2022/12/23 12:34:28;;;;;;;;;;;1.50;83.40;;;;;;5043953;28;87151;-40
2022/12/23 12:36:57;;;;;;;;;;;1.50;83.40;;;;;;5044558;28;86571;-40
2022/12/23 12:39:27;;;;;;;;;;;1.50;83.40;;;;;;5043508;28;87933;-40
2022/12/23 12:41:59;;;;;;;;;;;1.50;83.40;;;;;;5043096;28;86866;-40
2022/12/23 12:44:39;;;;;;;;;;;1.60;83.40;;;;;;5043342;28;87977;-40
2022/12/23 12:47:33;;;;;;;;;;;1.60;83.40;;;;;;5043197;28;87893;-40
2022/12/23 12:50:01;;;;;;;;;;;1.60;83.20;;;;;;5023873;28;86913;-40
2022/12/23 12:52:29;;;;;;;;;;;1.60;83.30;;;;;;5042962;28;87982;-40
2022/12/23 12:55:02;;;;;;;;;;;1.60;83.40;;;;;;5042801;27;86847;-40
2022/12/23 12:57:28;;;;;;;;;;;1.60;83.40;;;;;;5043258;28;87361;-40
2022/12/23 12:59:55;;;;;;;;;;;1.70;83.10;;;;;;5043103;28;88413;-40
2022/12/23 13:02:20;;;;;;;;;;;1.80;82.70;;;;;;5044171;28;86274;-40
2022/12/23 13:04:55;;;;;;;;;;;1.90;82.40;;;;;;5043911;28;87386;-40
2022/12/23 13:07:39;;;;;;;;;;;2.00;81.80;;;;;;5043221;28;87151;-40
2022/12/23 13:10:22;;;;;;;;;;;1.90;82.00;;;;;;5045877;28;87982;-40
2022/12/23 13:12:54;;;;;;;;;;;1.90;82.30;;;;;;5042979;28;88396;-40
2022/12/23 13:15:31;;;;;;;;;;;2.00;82.10;;;;;;5043412;28;87242;-40
2022/12/23 13:18:03;;;;;;;;;;;1.90;82.00;;;;;;5043408;28;87148;-40
2022/12/23 13:20:29;;;;;;;;;;;2.00;82.00;;;;;;5042554;28;88024;-40
2022/12/23 13:22:57;;;;;;;;;;;2.00;82.10;;;;;;5043045;28;87113;-40
2022/12/23 13:25:30;;;;;;;;;;;2.10;81.80;;;;;;5042977;28;87466;-40
2022/12/23 13:28:04;;;;;;;;;;;2.10;81.70;;;;;;5043051;28;87565;-40
2022/12/23 13:30:46;;;;;;;;;;;2.10;81.60;;;;;;5043190;28;87195;-40
2022/12/23 13:33:40;;;;;;;;;;;2.00;82.20;;;;;;5045807;28;87348;-40
2022/12/23 13:36:10;;;;;;;;;;;2.10;81.80;;;;;;5019957;28;88138;-40
2022/12/23 13:38:45;;;;;;;;;;;2.20;81.60;;;;;;5042674;28;87472;-40
2022/12/23 13:41:13;;;;;;;;;;;2.20;81.60;;;;;;5042394;28;88183;-40
2022/12/23 13:43:44;;;;;;;;;;;2.10;81.70;;;;;;5042590;28;87143;-40
2022/12/23 13:46:29;;;;;;;;;;;2.20;81.50;;;;;;5042518;28;87385;-40
2022/12/23 13:48:55;;;;;;;;;;;2.20;81.40;;;;;;4990378;28;88251;-40
2022/12/23 13:51:26;;;;;;;;;;;2.30;81.40;;;;;;5042692;28;86998;-40
2022/12/23 13:53:52;;;;;;;;;;;2.20;81.60;;;;;;5043347;27;87336;-40
2022/12/23 13:56:28;;;;;;;;;;;2.30;81.80;;;;;;5045233;28;88279;-40
2022/12/23 13:58:55;;;;;;;;;;;2.30;81.50;;;;;;5042576;28;86980;-40
2022/12/23 14:01:30;;;;;;;;;;;2.30;81.90;;;;;;5041669;28;88927;-40
2022/12/23 14:03:55;;;;;;;;;;;2.20;82.20;;;;;;5042681;28;87466;-40
2022/12/23 14:06:23;;;;;;;;;;;2.20;82.00;;;;;;5043017;27;87406;-40
2022/12/23 14:08:52;;;;;;;;;;;2.30;81.90;;;;;;5045686;28;88175;-40
2022/12/23 14:11:23;;;;;;;;;;;2.30;81.90;;;;;;5045963;28;87229;-40
2022/12/23 14:13:49;;;;;;;;;;;2.30;81.40;;;;;;5045889;28;87269;-40
2022/12/23 14:16:33;;;;;;;;;;;2.30;81.70;;;;;;5045813;28;87811;-40
2022/12/23 14:19:17;;;;;;;;;;;2.30;81.90;;;;;;5049483;28;86461;-40
2022/12/23 14:21:57;;;;;;;;;;;2.50;81.60;;;;;;5045253;28;87929;-40
2022/12/23 14:24:41;;;;;;;;;;;2.50;81.60;;;;;;5046149;28;87177;-40
2022/12/23 14:27:07;;;;;;;;;;;2.40;81.40;;;;;;5045246;28;87807;-40
2022/12/23 14:29:32;;;;;;;;;;;2.50;81.50;;;;;;5045341;28;87935;-40
2022/12/23 14:31:58;;;;;;;;;;;2.50;81.60;;;;;;5045657;28;87152;-40
2022/12/23 14:34:26;;;;;;;;;;;2.50;81.60;;;;;;5045817;28;87363;-40
2022/12/23 14:37:10;;;;;;;;;;;2.50;81.40;;;;;;5045299;28;87962;-40
2022/12/23 14:39:35;;;;;;;;;;;2.50;81.60;;;;;;5045711;28;87151;-40
2022/12/23 14:42:01;;;;;;;;;;;2.50;81.50;;;;;;5047853;28;87392;-40
2022/12/23 14:44:26;;;;;;;;;;;2.50;81.50;;;;;;5046076;28;86545;-40
2022/12/23 14:46:53;;;;;;;;;;;2.50;81.70;;;;;;5045520;28;87016;-40
2022/12/23 14:49:31;;;;;;;;;;;2.60;81.70;;;;;;5045184;28;87308;-40
2022/12/23 14:52:16;;;;;;;;;;;2.60;81.60;;;;;;5045132;28;87945;-40
2022/12/23 14:54:42;;;;;;;;;;;2.60;81.50;;;;;;5045446;28;86971;-40
2022/12/23 14:57:15;;;;;;;;;;;2.60;81.50;;;;;;5044817;28;88142;-40
2022/12/23 14:59:51;;;;;;;;;;;2.60;81.50;;;;;;5045459;28;86974;-40
2022/12/23 15:02:26;;;;;;;;;;;2.60;81.50;;;;;;5045501;28;87521;-40
2022/12/23 15:04:55;;;;;;;;;;;2.60;81.50;;;;;;5047869;28;87918;-40
2022/12/23 15:07:32;;;;;;;;;;;2.60;81.40;;;;;;5045109;28;87463;-40